sensor_id;sensor_type;location;lat;lon;timestamp;P1;durP1;ratioP1;P2;durP2;ratioP2
74371;SDS011;62885;51.374;6.170;2022-09-27T00:02:03;3.15;;;1.20;;
74371;SDS011;62885;51.374;6.170;2022-09-27T00:04:29;9.25;;;1.83;;
74371;SDS011;62885;51.374;6.170;2022-09-27T00:06:54;3.83;;;1.27;;
74371;SDS011;62885;51.374;6.170;2022-09-27T00:09:20;4.18;;;1.20;;
74371;SDS011;62885;51.374;6.170;2022-09-27T00:11:45;4.15;;;1.25;;
74371;SDS011;62885;51.374;6.170;2022-09-27T00:14:12;4.18;;;1.40;;
74371;SDS011;62885;51.374;6.170;2022-09-27T00:16:40;5.72;;;1.45;;
74371;SDS011;62885;51.374;6.170;2022-09-27T00:19:07;4.32;;;1.25;;
74371;SDS011;62885;51.374;6.170;2022-09-27T00:21:36;3.92;;;1.92;;
74371;SDS011;62885;51.374;6.170;2022-09-27T00:24:01;3.83;;;1.45;;
74371;SDS011;62885;51.374;6.170;2022-09-27T00:26:27;2.90;;;1.27;;
74371;SDS011;62885;51.374;6.170;2022-09-27T00:28:53;4.38;;;1.55;;
74371;SDS011;62885;51.374;6.170;2022-09-27T00:31:20;3.05;;;1.48;;
74371;SDS011;62885;51.374;6.170;2022-09-27T00:33:48;3.58;;;1.60;;
74371;SDS011;62885;51.374;6.170;2022-09-27T00:36:15;3.10;;;1.33;;
74371;SDS011;62885;51.374;6.170;2022-09-27T00:38:42;4.38;;;2.03;;
74371;SDS011;62885;51.374;6.170;2022-09-27T00:41:11;5.32;;;1.80;;
74371;SDS011;62885;51.374;6.170;2022-09-27T00:48:47;6.53;;;2.28;;
74371;SDS011;62885;51.374;6.170;2022-09-27T00:51:16;4.80;;;1.90;;
74371;SDS011;62885;51.374;6.170;2022-09-27T00:53:43;4.88;;;2.30;;
74371;SDS011;62885;51.374;6.170;2022-09-27T00:56:17;6.30;;;2.70;;
74371;SDS011;62885;51.374;6.170;2022-09-27T00:58:46;5.47;;;2.63;;
74371;SDS011;62885;51.374;6.170;2022-09-27T01:01:17;5.55;;;2.40;;
74371;SDS011;62885;51.374;6.170;2022-09-27T01:03:57;3.55;;;1.98;;
74371;SDS011;62885;51.374;6.170;2022-09-27T01:06:27;7.72;;;3.13;;
74371;SDS011;62885;51.374;6.170;2022-09-27T01:08:53;6.15;;;2.35;;
74371;SDS011;62885;51.374;6.170;2022-09-27T01:11:22;6.05;;;3.08;;
74371;SDS011;62885;51.374;6.170;2022-09-27T01:16:18;8.20;;;3.00;;
74371;SDS011;62885;51.374;6.170;2022-09-27T01:19:00;10.68;;;3.03;;
74371;SDS011;62885;51.374;6.170;2022-09-27T01:21:44;6.40;;;2.88;;
74371;SDS011;62885;51.374;6.170;2022-09-27T01:24:28;5.07;;;2.28;;
74371;SDS011;62885;51.374;6.170;2022-09-27T01:30:21;5.22;;;2.20;;
74371;SDS011;62885;51.374;6.170;2022-09-27T01:32:58;5.65;;;2.45;;
74371;SDS011;62885;51.374;6.170;2022-09-27T01:35:37;4.18;;;1.80;;
74371;SDS011;62885;51.374;6.170;2022-09-27T01:43:40;4.75;;;2.00;;
74371;SDS011;62885;51.374;6.170;2022-09-27T01:46:14;3.42;;;1.80;;
74371;SDS011;62885;51.374;6.170;2022-09-27T01:48:46;5.43;;;1.98;;
74371;SDS011;62885;51.374;6.170;2022-09-27T01:52:00;2.95;;;1.83;;
74371;SDS011;62885;51.374;6.170;2022-09-27T01:54:06;5.32;;;1.92;;
74371;SDS011;62885;51.374;6.170;2022-09-27T01:56:40;3.67;;;1.70;;
74371;SDS011;62885;51.374;6.170;2022-09-27T01:59:10;6.38;;;2.03;;
74371;SDS011;62885;51.374;6.170;2022-09-27T02:01:47;4.88;;;1.65;;
74371;SDS011;62885;51.374;6.170;2022-09-27T02:04:20;6.90;;;1.70;;
74371;SDS011;62885;51.374;6.170;2022-09-27T02:06:52;3.97;;;1.48;;
74371;SDS011;62885;51.374;6.170;2022-09-27T02:09:34;3.22;;;1.70;;
74371;SDS011;62885;51.374;6.170;2022-09-27T02:12:19;8.75;;;1.67;;
74371;SDS011;62885;51.374;6.170;2022-09-27T02:14:52;3.50;;;1.38;;
74371;SDS011;62885;51.374;6.170;2022-09-27T02:24:57;2.00;;;1.10;;
74371;SDS011;62885;51.374;6.170;2022-09-27T02:27:33;2.72;;;1.13;;
74371;SDS011;62885;51.374;6.170;2022-09-27T02:30:07;3.03;;;0.90;;
74371;SDS011;62885;51.374;6.170;2022-09-27T02:32:36;3.33;;;1.15;;
74371;SDS011;62885;51.374;6.170;2022-09-27T02:35:03;4.03;;;1.23;;
74371;SDS011;62885;51.374;6.170;2022-09-27T02:37:33;1.98;;;1.15;;
74371;SDS011;62885;51.374;6.170;2022-09-27T02:39:58;3.13;;;1.25;;
74371;SDS011;62885;51.374;6.170;2022-09-27T02:42:24;2.42;;;1.45;;
74371;SDS011;62885;51.374;6.170;2022-09-27T02:44:51;4.53;;;0.95;;
74371;SDS011;62885;51.374;6.170;2022-09-27T02:53:02;2.03;;;1.00;;
74371;SDS011;62885;51.374;6.170;2022-09-27T03:03:51;4.85;;;0.80;;
74371;SDS011;62885;51.374;6.170;2022-09-27T03:06:23;1.80;;;0.90;;
74371;SDS011;62885;51.374;6.170;2022-09-27T03:08:49;2.10;;;1.10;;
74371;SDS011;62885;51.374;6.170;2022-09-27T03:11:15;4.22;;;0.98;;
74371;SDS011;62885;51.374;6.170;2022-09-27T03:13:42;3.42;;;0.90;;
74371;SDS011;62885;51.374;6.170;2022-09-27T03:16:08;5.30;;;1.15;;
74371;SDS011;62885;51.374;6.170;2022-09-27T03:18:34;2.92;;;1.00;;
74371;SDS011;62885;51.374;6.170;2022-09-27T03:20:59;4.50;;;0.70;;
74371;SDS011;62885;51.374;6.170;2022-09-27T03:23:25;2.17;;;1.05;;
74371;SDS011;62885;51.374;6.170;2022-09-27T03:25:51;3.65;;;1.10;;
74371;SDS011;62885;51.374;6.170;2022-09-27T03:28:17;3.95;;;1.08;;
74371;SDS011;62885;51.374;6.170;2022-09-27T03:30:45;4.38;;;0.70;;
74371;SDS011;62885;51.374;6.170;2022-09-27T03:33:11;4.00;;;0.80;;
74371;SDS011;62885;51.374;6.170;2022-09-27T03:35:37;7.15;;;0.98;;
74371;SDS011;62885;51.374;6.170;2022-09-27T03:38:03;1.23;;;0.77;;
74371;SDS011;62885;51.374;6.170;2022-09-27T03:40:29;1.00;;;0.38;;
74371;SDS011;62885;51.374;6.170;2022-09-27T03:42:55;6.15;;;0.80;;
74371;SDS011;62885;51.374;6.170;2022-09-27T03:45:20;3.92;;;0.68;;
74371;SDS011;62885;51.374;6.170;2022-09-27T03:47:46;1.25;;;0.57;;
74371;SDS011;62885;51.374;6.170;2022-09-27T03:50:12;5.97;;;1.33;;
74371;SDS011;62885;51.374;6.170;2022-09-27T03:52:38;4.45;;;0.63;;
74371;SDS011;62885;51.374;6.170;2022-09-27T03:55:04;2.28;;;1.13;;
74371;SDS011;62885;51.374;6.170;2022-09-27T03:57:30;2.90;;;1.30;;
74371;SDS011;62885;51.374;6.170;2022-09-27T03:59:56;1.02;;;0.50;;
74371;SDS011;62885;51.374;6.170;2022-09-27T04:02:23;2.25;;;0.45;;
74371;SDS011;62885;51.374;6.170;2022-09-27T04:04:49;3.55;;;0.50;;
74371;SDS011;62885;51.374;6.170;2022-09-27T04:07:14;3.78;;;0.68;;
74371;SDS011;62885;51.374;6.170;2022-09-27T04:09:41;3.65;;;0.50;;
74371;SDS011;62885;51.374;6.170;2022-09-27T04:12:08;2.40;;;0.75;;
74371;SDS011;62885;51.374;6.170;2022-09-27T04:14:34;3.20;;;0.63;;
74371;SDS011;62885;51.374;6.170;2022-09-27T04:16:59;3.22;;;0.60;;
74371;SDS011;62885;51.374;6.170;2022-09-27T04:19:24;3.63;;;0.63;;
74371;SDS011;62885;51.374;6.170;2022-09-27T04:21:49;3.42;;;0.80;;
74371;SDS011;62885;51.374;6.170;2022-09-27T04:24:15;1.37;;;0.60;;
74371;SDS011;62885;51.374;6.170;2022-09-27T04:26:40;2.13;;;0.70;;
74371;SDS011;62885;51.374;6.170;2022-09-27T04:29:05;1.33;;;0.50;;
74371;SDS011;62885;51.374;6.170;2022-09-27T04:31:33;2.42;;;0.63;;
74371;SDS011;62885;51.374;6.170;2022-09-27T04:33:59;2.75;;;0.65;;
74371;SDS011;62885;51.374;6.170;2022-09-27T04:36:24;2.28;;;0.45;;
74371;SDS011;62885;51.374;6.170;2022-09-27T04:38:56;1.38;;;0.57;;
74371;SDS011;62885;51.374;6.170;2022-09-27T04:41:23;2.42;;;0.70;;
74371;SDS011;62885;51.374;6.170;2022-09-27T04:43:52;6.85;;;0.68;;
74371;SDS011;62885;51.374;6.170;2022-09-27T04:46:19;3.58;;;0.90;;
74371;SDS011;62885;51.374;6.170;2022-09-27T04:48:45;1.98;;;0.88;;
74371;SDS011;62885;51.374;6.170;2022-09-27T04:51:11;2.05;;;0.40;;
74371;SDS011;62885;51.374;6.170;2022-09-27T04:53:36;3.05;;;0.70;;
74371;SDS011;62885;51.374;6.170;2022-09-27T04:56:02;2.70;;;0.70;;
74371;SDS011;62885;51.374;6.170;2022-09-27T04:58:29;1.42;;;0.60;;
74371;SDS011;62885;51.374;6.170;2022-09-27T05:00:55;1.33;;;0.80;;
74371;SDS011;62885;51.374;6.170;2022-09-27T05:03:21;2.17;;;0.90;;
74371;SDS011;62885;51.374;6.170;2022-09-27T05:05:47;3.33;;;0.70;;
74371;SDS011;62885;51.374;6.170;2022-09-27T05:08:12;1.17;;;0.70;;
74371;SDS011;62885;51.374;6.170;2022-09-27T05:10:38;3.70;;;1.17;;
74371;SDS011;62885;51.374;6.170;2022-09-27T05:13:04;2.95;;;0.60;;
74371;SDS011;62885;51.374;6.170;2022-09-27T05:15:30;4.05;;;1.00;;
74371;SDS011;62885;51.374;6.170;2022-09-27T05:17:56;4.53;;;0.80;;
74371;SDS011;62885;51.374;6.170;2022-09-27T05:20:22;4.28;;;1.08;;
74371;SDS011;62885;51.374;6.170;2022-09-27T05:22:49;5.18;;;0.93;;
74371;SDS011;62885;51.374;6.170;2022-09-27T05:25:15;1.38;;;0.60;;
74371;SDS011;62885;51.374;6.170;2022-09-27T05:27:41;1.08;;;0.70;;
74371;SDS011;62885;51.374;6.170;2022-09-27T05:30:07;1.52;;;0.80;;
74371;SDS011;62885;51.374;6.170;2022-09-27T05:32:33;1.85;;;0.65;;
74371;SDS011;62885;51.374;6.170;2022-09-27T05:34:59;1.83;;;0.60;;
74371;SDS011;62885;51.374;6.170;2022-09-27T05:37:24;0.50;;;0.32;;
74371;SDS011;62885;51.374;6.170;2022-09-27T05:39:50;3.45;;;0.60;;
74371;SDS011;62885;51.374;6.170;2022-09-27T05:42:15;3.50;;;0.85;;
74371;SDS011;62885;51.374;6.170;2022-09-27T05:44:41;4.75;;;1.50;;
74371;SDS011;62885;51.374;6.170;2022-09-27T05:47:11;2.15;;;0.60;;
74371;SDS011;62885;51.374;6.170;2022-09-27T05:49:36;2.88;;;0.88;;
74371;SDS011;62885;51.374;6.170;2022-09-27T05:52:03;2.78;;;0.90;;
74371;SDS011;62885;51.374;6.170;2022-09-27T05:54:28;2.33;;;0.70;;
74371;SDS011;62885;51.374;6.170;2022-09-27T05:56:54;0.55;;;0.55;;
74371;SDS011;62885;51.374;6.170;2022-09-27T05:59:23;0.68;;;0.60;;
74371;SDS011;62885;51.374;6.170;2022-09-27T06:01:50;2.58;;;0.60;;
74371;SDS011;62885;51.374;6.170;2022-09-27T06:04:15;9.38;;;0.98;;
74371;SDS011;62885;51.374;6.170;2022-09-27T06:06:41;1.75;;;0.60;;
74371;SDS011;62885;51.374;6.170;2022-09-27T06:09:10;2.97;;;0.85;;
74371;SDS011;62885;51.374;6.170;2022-09-27T06:11:36;0.52;;;0.40;;
74371;SDS011;62885;51.374;6.170;2022-09-27T06:14:02;2.85;;;0.68;;
74371;SDS011;62885;51.374;6.170;2022-09-27T06:16:27;0.82;;;0.70;;
74371;SDS011;62885;51.374;6.170;2022-09-27T06:18:52;1.10;;;0.57;;
74371;SDS011;62885;51.374;6.170;2022-09-27T06:21:18;3.20;;;0.73;;
74371;SDS011;62885;51.374;6.170;2022-09-27T06:23:44;3.03;;;0.57;;
74371;SDS011;62885;51.374;6.170;2022-09-27T06:26:09;3.10;;;0.93;;
74371;SDS011;62885;51.374;6.170;2022-09-27T06:28:35;1.90;;;0.60;;
74371;SDS011;62885;51.374;6.170;2022-09-27T06:31:01;1.55;;;0.55;;
74371;SDS011;62885;51.374;6.170;2022-09-27T06:33:29;2.05;;;0.52;;
74371;SDS011;62885;51.374;6.170;2022-09-27T06:35:54;3.08;;;0.93;;
74371;SDS011;62885;51.374;6.170;2022-09-27T06:38:20;1.48;;;0.85;;
74371;SDS011;62885;51.374;6.170;2022-09-27T06:40:46;2.75;;;0.90;;
74371;SDS011;62885;51.374;6.170;2022-09-27T06:43:12;0.50;;;0.40;;
74371;SDS011;62885;51.374;6.170;2022-09-27T06:45:40;1.67;;;0.55;;
74371;SDS011;62885;51.374;6.170;2022-09-27T06:48:07;1.35;;;0.50;;
74371;SDS011;62885;51.374;6.170;2022-09-27T06:50:36;2.83;;;0.85;;
74371;SDS011;62885;51.374;6.170;2022-09-27T06:53:03;0.65;;;0.50;;
74371;SDS011;62885;51.374;6.170;2022-09-27T06:55:29;1.55;;;0.50;;
74371;SDS011;62885;51.374;6.170;2022-09-27T06:57:55;2.13;;;0.50;;
74371;SDS011;62885;51.374;6.170;2022-09-27T07:00:40;1.35;;;0.75;;
74371;SDS011;62885;51.374;6.170;2022-09-27T07:03:07;1.90;;;0.65;;
74371;SDS011;62885;51.374;6.170;2022-09-27T07:05:35;0.43;;;0.30;;
74371;SDS011;62885;51.374;6.170;2022-09-27T07:08:01;0.45;;;0.30;;
74371;SDS011;62885;51.374;6.170;2022-09-27T07:10:28;2.75;;;0.60;;
74371;SDS011;62885;51.374;6.170;2022-09-27T07:12:57;1.08;;;0.22;;
74371;SDS011;62885;51.374;6.170;2022-09-27T07:15:29;2.75;;;0.63;;
74371;SDS011;62885;51.374;6.170;2022-09-27T07:17:58;1.23;;;0.38;;
74371;SDS011;62885;51.374;6.170;2022-09-27T07:20:24;1.85;;;0.38;;
74371;SDS011;62885;51.374;6.170;2022-09-27T07:22:50;2.72;;;0.50;;
74371;SDS011;62885;51.374;6.170;2022-09-27T07:25:16;0.57;;;0.57;;
74371;SDS011;62885;51.374;6.170;2022-09-27T07:27:41;1.25;;;0.52;;
74371;SDS011;62885;51.374;6.170;2022-09-27T07:30:07;1.10;;;0.50;;
74371;SDS011;62885;51.374;6.170;2022-09-27T07:32:33;1.85;;;0.70;;
74371;SDS011;62885;51.374;6.170;2022-09-27T07:35:05;1.30;;;0.70;;
74371;SDS011;62885;51.374;6.170;2022-09-27T07:37:32;0.93;;;0.50;;
74371;SDS011;62885;51.374;6.170;2022-09-27T07:39:58;1.08;;;0.80;;
74371;SDS011;62885;51.374;6.170;2022-09-27T07:42:25;1.30;;;0.63;;
74371;SDS011;62885;51.374;6.170;2022-09-27T07:44:52;4.18;;;0.55;;
74371;SDS011;62885;51.374;6.170;2022-09-27T07:47:19;1.52;;;0.60;;
74371;SDS011;62885;51.374;6.170;2022-09-27T07:49:45;0.90;;;0.70;;
74371;SDS011;62885;51.374;6.170;2022-09-27T07:52:12;3.45;;;0.68;;
74371;SDS011;62885;51.374;6.170;2022-09-27T07:54:38;1.67;;;0.38;;
74371;SDS011;62885;51.374;6.170;2022-09-27T07:57:03;2.47;;;0.65;;
74371;SDS011;62885;51.374;6.170;2022-09-27T07:59:28;1.65;;;0.70;;
74371;SDS011;62885;51.374;6.170;2022-09-27T08:01:54;1.20;;;0.50;;
74371;SDS011;62885;51.374;6.170;2022-09-27T08:04:20;1.27;;;0.60;;
74371;SDS011;62885;51.374;6.170;2022-09-27T08:06:45;1.65;;;0.80;;
74371;SDS011;62885;51.374;6.170;2022-09-27T08:09:11;1.83;;;0.70;;
74371;SDS011;62885;51.374;6.170;2022-09-27T08:11:36;3.42;;;0.80;;
74371;SDS011;62885;51.374;6.170;2022-09-27T08:14:02;0.90;;;0.60;;
74371;SDS011;62885;51.374;6.170;2022-09-27T08:16:29;1.10;;;0.70;;
74371;SDS011;62885;51.374;6.170;2022-09-27T08:18:56;1.08;;;0.80;;
74371;SDS011;62885;51.374;6.170;2022-09-27T08:21:22;0.95;;;0.75;;
74371;SDS011;62885;51.374;6.170;2022-09-27T08:23:47;1.30;;;0.68;;
74371;SDS011;62885;51.374;6.170;2022-09-27T08:26:13;1.63;;;0.80;;
74371;SDS011;62885;51.374;6.170;2022-09-27T08:28:38;1.98;;;0.90;;
74371;SDS011;62885;51.374;6.170;2022-09-27T08:31:03;1.20;;;0.90;;
74371;SDS011;62885;51.374;6.170;2022-09-27T08:33:29;2.63;;;1.20;;
74371;SDS011;62885;51.374;6.170;2022-09-27T08:35:54;5.15;;;1.80;;
74371;SDS011;62885;51.374;6.170;2022-09-27T08:38:19;2.10;;;1.15;;
74371;SDS011;62885;51.374;6.170;2022-09-27T08:40:51;2.38;;;1.27;;
74371;SDS011;62885;51.374;6.170;2022-09-27T08:48:17;2.83;;;1.40;;
74371;SDS011;62885;51.374;6.170;2022-09-27T08:50:43;3.38;;;1.63;;
74371;SDS011;62885;51.374;6.170;2022-09-27T08:55:48;3.40;;;1.92;;
74371;SDS011;62885;51.374;6.170;2022-09-27T09:00:52;4.05;;;2.15;;
74371;SDS011;62885;51.374;6.170;2022-09-27T09:03:21;4.88;;;1.92;;
74371;SDS011;62885;51.374;6.170;2022-09-27T09:06:26;4.80;;;1.88;;
74371;SDS011;62885;51.374;6.170;2022-09-27T09:14:43;4.43;;;2.05;;
74371;SDS011;62885;51.374;6.170;2022-09-27T09:17:23;5.00;;;2.10;;
74371;SDS011;62885;51.374;6.170;2022-09-27T09:28:43;5.28;;;2.22;;
74371;SDS011;62885;51.374;6.170;2022-09-27T09:33:54;4.63;;;2.00;;
74371;SDS011;62885;51.374;6.170;2022-09-27T09:36:31;3.75;;;2.22;;
74371;SDS011;62885;51.374;6.170;2022-09-27T09:39:02;4.35;;;1.85;;
74371;SDS011;62885;51.374;6.170;2022-09-27T09:41:34;3.45;;;1.88;;
74371;SDS011;62885;51.374;6.170;2022-09-27T09:46:54;3.53;;;2.05;;
74371;SDS011;62885;51.374;6.170;2022-09-27T09:49:33;4.18;;;1.98;;
74371;SDS011;62885;51.374;6.170;2022-09-27T09:52:15;4.40;;;2.45;;
74371;SDS011;62885;51.374;6.170;2022-09-27T09:54:55;4.78;;;2.53;;
74371;SDS011;62885;51.374;6.170;2022-09-27T09:57:32;7.47;;;3.35;;
74371;SDS011;62885;51.374;6.170;2022-09-27T10:02:39;6.75;;;3.40;;
74371;SDS011;62885;51.374;6.170;2022-09-27T10:05:09;6.40;;;3.63;;
74371;SDS011;62885;51.374;6.170;2022-09-27T10:07:42;7.20;;;3.72;;
74371;SDS011;62885;51.374;6.170;2022-09-27T10:10:15;6.78;;;3.65;;
74371;SDS011;62885;51.374;6.170;2022-09-27T10:12:42;7.32;;;3.80;;
74371;SDS011;62885;51.374;6.170;2022-09-27T10:15:13;8.35;;;3.45;;
74371;SDS011;62885;51.374;6.170;2022-09-27T10:17:41;8.50;;;4.20;;
74371;SDS011;62885;51.374;6.170;2022-09-27T10:20:30;6.68;;;4.13;;
74371;SDS011;62885;51.374;6.170;2022-09-27T10:23:03;7.63;;;4.20;;
74371;SDS011;62885;51.374;6.170;2022-09-27T10:25:43;8.23;;;4.22;;
74371;SDS011;62885;51.374;6.170;2022-09-27T10:31:11;7.70;;;4.60;;
74371;SDS011;62885;51.374;6.170;2022-09-27T10:33:50;9.70;;;4.65;;
74371;SDS011;62885;51.374;6.170;2022-09-27T10:36:27;7.30;;;3.78;;
74371;SDS011;62885;51.374;6.170;2022-09-27T10:38:58;8.25;;;4.55;;
74371;SDS011;62885;51.374;6.170;2022-09-27T10:43:56;6.70;;;3.53;;
74371;SDS011;62885;51.374;6.170;2022-09-27T10:46:25;6.85;;;3.90;;
74371;SDS011;62885;51.374;6.170;2022-09-27T10:49:08;7.57;;;3.95;;
74371;SDS011;62885;51.374;6.170;2022-09-27T10:51:42;7.03;;;3.83;;
74371;SDS011;62885;51.374;6.170;2022-09-27T10:57:08;7.00;;;3.92;;
74371;SDS011;62885;51.374;6.170;2022-09-27T10:59:43;8.65;;;3.65;;
74371;SDS011;62885;51.374;6.170;2022-09-27T11:02:48;7.80;;;4.00;;
74371;SDS011;62885;51.374;6.170;2022-09-27T11:07:37;6.70;;;3.78;;
74371;SDS011;62885;51.374;6.170;2022-09-27T11:12:48;5.38;;;3.17;;
74371;SDS011;62885;51.374;6.170;2022-09-27T11:15:30;6.15;;;3.10;;
74371;SDS011;62885;51.374;6.170;2022-09-27T11:18:28;6.32;;;3.53;;
74371;SDS011;62885;51.374;6.170;2022-09-27T11:26:43;4.55;;;2.60;;
74371;SDS011;62885;51.374;6.170;2022-09-27T11:32:09;4.95;;;1.95;;
74371;SDS011;62885;51.374;6.170;2022-09-27T11:34:40;5.50;;;2.38;;
74371;SDS011;62885;51.374;6.170;2022-09-27T11:42:53;3.25;;;1.40;;
74371;SDS011;62885;51.374;6.170;2022-09-27T11:46:16;3.65;;;1.75;;
74371;SDS011;62885;51.374;6.170;2022-09-27T11:54:26;1.67;;;0.77;;
74371;SDS011;62885;51.374;6.170;2022-09-27T12:10:59;0.88;;;0.75;;
74371;SDS011;62885;51.374;6.170;2022-09-27T12:13:39;0.73;;;0.65;;
74371;SDS011;62885;51.374;6.170;2022-09-27T12:16:08;2.85;;;0.75;;
74371;SDS011;62885;51.374;6.170;2022-09-27T12:18:37;4.40;;;0.82;;
74371;SDS011;62885;51.374;6.170;2022-09-27T12:21:05;1.50;;;0.60;;
74371;SDS011;62885;51.374;6.170;2022-09-27T12:23:49;0.32;;;0.32;;
74371;SDS011;62885;51.374;6.170;2022-09-27T12:26:19;0.60;;;0.40;;
74371;SDS011;62885;51.374;6.170;2022-09-27T12:28:59;1.20;;;0.28;;
74371;SDS011;62885;51.374;6.170;2022-09-27T12:31:31;1.02;;;0.40;;
74371;SDS011;62885;51.374;6.170;2022-09-27T12:36:37;0.43;;;0.35;;
74371;SDS011;62885;51.374;6.170;2022-09-27T12:42:01;0.75;;;0.50;;
74371;SDS011;62885;51.374;6.170;2022-09-27T12:44:36;0.93;;;0.40;;
74371;SDS011;62885;51.374;6.170;2022-09-27T12:49:47;1.65;;;0.45;;
74371;SDS011;62885;51.374;6.170;2022-09-27T12:52:26;1.58;;;0.50;;
74371;SDS011;62885;51.374;6.170;2022-09-27T13:00:26;1.05;;;0.40;;
74371;SDS011;62885;51.374;6.170;2022-09-27T13:04:03;0.47;;;0.40;;
74371;SDS011;62885;51.374;6.170;2022-09-27T13:14:09;1.98;;;0.43;;
74371;SDS011;62885;51.374;6.170;2022-09-27T13:16:42;0.82;;;0.40;;
74371;SDS011;62885;51.374;6.170;2022-09-27T13:22:15;2.22;;;0.40;;
74371;SDS011;62885;51.374;6.170;2022-09-27T13:24:51;0.90;;;0.47;;
74371;SDS011;62885;51.374;6.170;2022-09-27T13:46:57;2.00;;;0.60;;
74371;SDS011;62885;51.374;6.170;2022-09-27T13:49:28;1.30;;;0.85;;
74371;SDS011;62885;51.374;6.170;2022-09-27T13:54:54;2.00;;;0.90;;
74371;SDS011;62885;51.374;6.170;2022-09-27T14:00:06;1.65;;;0.70;;
74371;SDS011;62885;51.374;6.170;2022-09-27T14:02:57;3.78;;;0.82;;
74371;SDS011;62885;51.374;6.170;2022-09-27T14:05:31;2.50;;;0.93;;
74371;SDS011;62885;51.374;6.170;2022-09-27T14:08:02;1.42;;;0.60;;
74371;SDS011;62885;51.374;6.170;2022-09-27T14:10:29;2.50;;;0.80;;
74371;SDS011;62885;51.374;6.170;2022-09-27T14:12:56;4.13;;;0.77;;
74371;SDS011;62885;51.374;6.170;2022-09-27T14:15:24;1.30;;;0.60;;
74371;SDS011;62885;51.374;6.170;2022-09-27T14:17:53;1.50;;;0.70;;
74371;SDS011;62885;51.374;6.170;2022-09-27T14:20:39;3.78;;;0.88;;
74371;SDS011;62885;51.374;6.170;2022-09-27T14:23:14;2.40;;;0.98;;
74371;SDS011;62885;51.374;6.170;2022-09-27T14:25:47;2.53;;;0.70;;
74371;SDS011;62885;51.374;6.170;2022-09-27T14:28:27;2.22;;;0.70;;
74371;SDS011;62885;51.374;6.170;2022-09-27T14:31:04;2.30;;;0.70;;
74371;SDS011;62885;51.374;6.170;2022-09-27T14:33:31;2.53;;;0.90;;
74371;SDS011;62885;51.374;6.170;2022-09-27T14:35:58;3.25;;;0.93;;
74371;SDS011;62885;51.374;6.170;2022-09-27T14:38:43;2.83;;;1.20;;
74371;SDS011;62885;51.374;6.170;2022-09-27T14:41:12;10.70;;;1.70;;
74371;SDS011;62885;51.374;6.170;2022-09-27T14:43:43;4.68;;;1.90;;
74371;SDS011;62885;51.374;6.170;2022-09-27T14:49:18;4.45;;;1.90;;
74371;SDS011;62885;51.374;6.170;2022-09-27T14:51:53;4.32;;;1.90;;
74371;SDS011;62885;51.374;6.170;2022-09-27T14:54:21;2.83;;;1.40;;
74371;SDS011;62885;51.374;6.170;2022-09-27T14:56:49;4.07;;;1.50;;
74371;SDS011;62885;51.374;6.170;2022-09-27T14:59:24;2.88;;;1.40;;
74371;SDS011;62885;51.374;6.170;2022-09-27T15:01:55;4.78;;;1.83;;
74371;SDS011;62885;51.374;6.170;2022-09-27T15:04:24;6.97;;;2.22;;
74371;SDS011;62885;51.374;6.170;2022-09-27T15:06:52;5.85;;;2.67;;
74371;SDS011;62885;51.374;6.170;2022-09-27T15:09:18;6.28;;;2.20;;
74371;SDS011;62885;51.374;6.170;2022-09-27T15:11:44;5.10;;;2.08;;
74371;SDS011;62885;51.374;6.170;2022-09-27T15:14:16;4.93;;;1.65;;
74371;SDS011;62885;51.374;6.170;2022-09-27T15:16:44;2.95;;;1.98;;
74371;SDS011;62885;51.374;6.170;2022-09-27T15:19:15;2.78;;;1.80;;
74371;SDS011;62885;51.374;6.170;2022-09-27T15:21:46;2.97;;;1.48;;
74371;SDS011;62885;51.374;6.170;2022-09-27T15:27:12;3.53;;;1.67;;
74371;SDS011;62885;51.374;6.170;2022-09-27T15:29:46;4.45;;;1.83;;
74371;SDS011;62885;51.374;6.170;2022-09-27T15:32:16;4.32;;;1.50;;
74371;SDS011;62885;51.374;6.170;2022-09-27T15:34:45;4.20;;;1.35;;
74371;SDS011;62885;51.374;6.170;2022-09-27T15:37:22;6.00;;;1.88;;
74371;SDS011;62885;51.374;6.170;2022-09-27T15:39:48;5.00;;;1.80;;
74371;SDS011;62885;51.374;6.170;2022-09-27T15:42:14;2.47;;;1.15;;
74371;SDS011;62885;51.374;6.170;2022-09-27T15:49:58;2.33;;;0.90;;
74371;SDS011;62885;51.374;6.170;2022-09-27T15:52:42;3.20;;;1.15;;
74371;SDS011;62885;51.374;6.170;2022-09-27T15:55:16;2.80;;;0.93;;
74371;SDS011;62885;51.374;6.170;2022-09-27T15:57:44;2.13;;;1.10;;
74371;SDS011;62885;51.374;6.170;2022-09-27T16:00:13;3.20;;;1.10;;
74371;SDS011;62885;51.374;6.170;2022-09-27T16:02:41;2.25;;;1.17;;
74371;SDS011;62885;51.374;6.170;2022-09-27T16:05:07;2.83;;;1.00;;
74371;SDS011;62885;51.374;6.170;2022-09-27T16:07:32;3.80;;;1.30;;
74371;SDS011;62885;51.374;6.170;2022-09-27T16:09:58;4.07;;;1.10;;
74371;SDS011;62885;51.374;6.170;2022-09-27T16:12:24;1.98;;;1.17;;
74371;SDS011;62885;51.374;6.170;2022-09-27T16:14:51;3.58;;;1.42;;
74371;SDS011;62885;51.374;6.170;2022-09-27T16:17:16;3.90;;;1.30;;
74371;SDS011;62885;51.374;6.170;2022-09-27T16:19:42;3.67;;;1.40;;
74371;SDS011;62885;51.374;6.170;2022-09-27T16:22:07;3.03;;;1.38;;
74371;SDS011;62885;51.374;6.170;2022-09-27T16:24:33;5.18;;;1.63;;
74371;SDS011;62885;51.374;6.170;2022-09-27T16:26:58;4.95;;;2.38;;
74371;SDS011;62885;51.374;6.170;2022-09-27T16:29:23;3.53;;;1.67;;
74371;SDS011;62885;51.374;6.170;2022-09-27T16:31:49;2.58;;;1.20;;
74371;SDS011;62885;51.374;6.170;2022-09-27T16:34:15;3.00;;;1.30;;
74371;SDS011;62885;51.374;6.170;2022-09-27T16:36:41;2.53;;;1.58;;
74371;SDS011;62885;51.374;6.170;2022-09-27T16:39:08;5.82;;;1.70;;
74371;SDS011;62885;51.374;6.170;2022-09-27T16:41:36;3.67;;;1.48;;
74371;SDS011;62885;51.374;6.170;2022-09-27T16:44:08;4.82;;;1.10;;
74371;SDS011;62885;51.374;6.170;2022-09-27T16:46:42;4.45;;;1.80;;
74371;SDS011;62885;51.374;6.170;2022-09-27T16:49:12;4.90;;;1.60;;
74371;SDS011;62885;51.374;6.170;2022-09-27T16:51:56;5.93;;;1.52;;
74371;SDS011;62885;51.374;6.170;2022-09-27T16:54:26;5.00;;;1.77;;
74371;SDS011;62885;51.374;6.170;2022-09-27T16:56:58;6.18;;;2.60;;
74371;SDS011;62885;51.374;6.170;2022-09-27T16:59:24;6.70;;;2.83;;
74371;SDS011;62885;51.374;6.170;2022-09-27T17:01:50;8.63;;;3.10;;
74371;SDS011;62885;51.374;6.170;2022-09-27T17:04:16;6.53;;;2.33;;
74371;SDS011;62885;51.374;6.170;2022-09-27T17:06:42;5.30;;;2.03;;
74371;SDS011;62885;51.374;6.170;2022-09-27T17:09:07;6.95;;;2.80;;
74371;SDS011;62885;51.374;6.170;2022-09-27T17:11:36;5.30;;;2.35;;
74371;SDS011;62885;51.374;6.170;2022-09-27T17:14:02;4.88;;;1.98;;
74371;SDS011;62885;51.374;6.170;2022-09-27T17:16:27;4.78;;;2.25;;
74371;SDS011;62885;51.374;6.170;2022-09-27T17:18:53;5.85;;;1.67;;
74371;SDS011;62885;51.374;6.170;2022-09-27T17:21:18;7.00;;;2.20;;
74371;SDS011;62885;51.374;6.170;2022-09-27T17:23:44;6.15;;;2.30;;
74371;SDS011;62885;51.374;6.170;2022-09-27T17:26:14;4.75;;;1.85;;
74371;SDS011;62885;51.374;6.170;2022-09-27T17:28:42;3.85;;;1.98;;
74371;SDS011;62885;51.374;6.170;2022-09-27T17:31:08;6.10;;;1.85;;
74371;SDS011;62885;51.374;6.170;2022-09-27T17:33:39;2.67;;;1.48;;
74371;SDS011;62885;51.374;6.170;2022-09-27T17:36:10;6.90;;;1.65;;
74371;SDS011;62885;51.374;6.170;2022-09-27T17:38:41;5.13;;;1.92;;
74371;SDS011;62885;51.374;6.170;2022-09-27T17:41:09;3.25;;;1.90;;
74371;SDS011;62885;51.374;6.170;2022-09-27T17:43:37;3.90;;;1.85;;
74371;SDS011;62885;51.374;6.170;2022-09-27T17:46:10;5.57;;;1.88;;
74371;SDS011;62885;51.374;6.170;2022-09-27T17:48:36;6.22;;;1.95;;
74371;SDS011;62885;51.374;6.170;2022-09-27T17:51:20;6.53;;;2.92;;
74371;SDS011;62885;51.374;6.170;2022-09-27T17:53:46;6.95;;;1.88;;
74371;SDS011;62885;51.374;6.170;2022-09-27T17:56:12;6.88;;;2.10;;
74371;SDS011;62885;51.374;6.170;2022-09-27T17:58:39;3.85;;;1.45;;
74371;SDS011;62885;51.374;6.170;2022-09-27T18:01:10;2.58;;;1.50;;
74371;SDS011;62885;51.374;6.170;2022-09-27T18:03:36;4.85;;;1.77;;